sensor_id;sensor_type;location;lat;lon;timestamp;P1;durP1;ratioP1;P2;durP2;ratioP2
6207;SDS011;3137;51.550;7.060;2022-07-23T00:00:58;5.00;;;4.60;;
6207;SDS011;3137;51.550;7.060;2022-07-23T00:03:24;4.23;;;4.23;;
6207;SDS011;3137;51.550;7.060;2022-07-23T00:05:51;4.90;;;4.70;;
6207;SDS011;3137;51.550;7.060;2022-07-23T00:08:17;3.40;;;3.17;;
6207;SDS011;3137;51.550;7.060;2022-07-23T00:10:43;4.03;;;3.67;;
6207;SDS011;3137;51.550;7.060;2022-07-23T00:13:10;4.20;;;4.00;;
6207;SDS011;3137;51.550;7.060;2022-07-23T00:15:36;4.10;;;3.93;;
6207;SDS011;3137;51.550;7.060;2022-07-23T00:18:03;4.53;;;4.43;;
6207;SDS011;3137;51.550;7.060;2022-07-23T00:20:29;4.23;;;4.13;;
6207;SDS011;3137;51.550;7.060;2022-07-23T00:22:55;3.90;;;3.77;;
6207;SDS011;3137;51.550;7.060;2022-07-23T00:25:22;4.13;;;4.13;;
6207;SDS011;3137;51.550;7.060;2022-07-23T00:27:54;4.33;;;4.07;;
6207;SDS011;3137;51.550;7.060;2022-07-23T00:30:21;5.03;;;4.93;;
6207;SDS011;3137;51.550;7.060;2022-07-23T00:32:54;3.63;;;3.63;;
6207;SDS011;3137;51.550;7.060;2022-07-23T00:35:23;4.73;;;4.67;;
6207;SDS011;3137;51.550;7.060;2022-07-23T00:37:51;5.17;;;4.97;;
6207;SDS011;3137;51.550;7.060;2022-07-23T00:40:18;4.80;;;4.60;;
6207;SDS011;3137;51.550;7.060;2022-07-23T00:42:44;4.77;;;4.47;;
6207;SDS011;3137;51.550;7.060;2022-07-23T00:45:11;4.50;;;4.30;;
6207;SDS011;3137;51.550;7.060;2022-07-23T00:47:37;4.73;;;4.43;;
6207;SDS011;3137;51.550;7.060;2022-07-23T00:50:04;5.13;;;4.83;;
6207;SDS011;3137;51.550;7.060;2022-07-23T00:52:31;5.30;;;5.10;;
6207;SDS011;3137;51.550;7.060;2022-07-23T00:54:58;5.13;;;4.93;;
6207;SDS011;3137;51.550;7.060;2022-07-23T00:57:25;5.30;;;5.20;;
6207;SDS011;3137;51.550;7.060;2022-07-23T00:59:54;4.83;;;4.70;;
6207;SDS011;3137;51.550;7.060;2022-07-23T01:02:21;5.60;;;5.50;;
6207;SDS011;3137;51.550;7.060;2022-07-23T01:04:47;5.27;;;4.90;;
6207;SDS011;3137;51.550;7.060;2022-07-23T01:07:14;4.83;;;4.67;;
6207;SDS011;3137;51.550;7.060;2022-07-23T01:09:41;5.40;;;5.10;;
6207;SDS011;3137;51.550;7.060;2022-07-23T01:12:08;4.57;;;4.47;;
6207;SDS011;3137;51.550;7.060;2022-07-23T01:14:34;5.00;;;4.90;;
6207;SDS011;3137;51.550;7.060;2022-07-23T01:17:01;4.90;;;4.70;;
6207;SDS011;3137;51.550;7.060;2022-07-23T01:19:27;9.53;;;4.87;;
6207;SDS011;3137;51.550;7.060;2022-07-23T01:21:54;5.47;;;5.37;;
6207;SDS011;3137;51.550;7.060;2022-07-23T01:24:22;4.53;;;4.27;;
6207;SDS011;3137;51.550;7.060;2022-07-23T01:27:08;5.07;;;4.80;;
6207;SDS011;3137;51.550;7.060;2022-07-23T01:29:36;5.53;;;4.97;;
6207;SDS011;3137;51.550;7.060;2022-07-23T01:32:08;4.50;;;4.47;;
6207;SDS011;3137;51.550;7.060;2022-07-23T01:34:35;5.23;;;4.93;;
6207;SDS011;3137;51.550;7.060;2022-07-23T01:37:01;4.70;;;4.50;;
6207;SDS011;3137;51.550;7.060;2022-07-23T01:39:28;5.40;;;5.10;;
6207;SDS011;3137;51.550;7.060;2022-07-23T01:41:55;6.77;;;5.20;;
6207;SDS011;3137;51.550;7.060;2022-07-23T01:44:23;4.87;;;4.57;;
6207;SDS011;3137;51.550;7.060;2022-07-23T01:46:50;4.70;;;4.47;;
6207;SDS011;3137;51.550;7.060;2022-07-23T01:49:18;4.60;;;4.50;;
6207;SDS011;3137;51.550;7.060;2022-07-23T01:51:57;5.67;;;5.47;;
6207;SDS011;3137;51.550;7.060;2022-07-23T01:54:32;4.00;;;3.80;;
6207;SDS011;3137;51.550;7.060;2022-07-23T01:57:01;4.83;;;4.53;;
6207;SDS011;3137;51.550;7.060;2022-07-23T01:59:28;4.40;;;4.33;;
6207;SDS011;3137;51.550;7.060;2022-07-23T02:01:54;4.40;;;4.30;;
6207;SDS011;3137;51.550;7.060;2022-07-23T02:04:21;4.83;;;4.63;;
6207;SDS011;3137;51.550;7.060;2022-07-23T02:06:50;5.00;;;4.80;;
6207;SDS011;3137;51.550;7.060;2022-07-23T02:09:16;5.90;;;5.33;;
6207;SDS011;3137;51.550;7.060;2022-07-23T02:11:45;4.97;;;4.70;;
6207;SDS011;3137;51.550;7.060;2022-07-23T02:14:12;4.67;;;4.47;;
6207;SDS011;3137;51.550;7.060;2022-07-23T02:16:38;4.53;;;4.33;;
6207;SDS011;3137;51.550;7.060;2022-07-23T02:19:05;4.23;;;4.23;;
6207;SDS011;3137;51.550;7.060;2022-07-23T02:21:36;4.23;;;4.23;;
6207;SDS011;3137;51.550;7.060;2022-07-23T02:24:03;4.97;;;4.97;;
6207;SDS011;3137;51.550;7.060;2022-07-23T02:26:30;4.33;;;4.13;;
6207;SDS011;3137;51.550;7.060;2022-07-23T02:29:00;5.20;;;5.20;;
6207;SDS011;3137;51.550;7.060;2022-07-23T02:31:29;4.30;;;4.00;;
6207;SDS011;3137;51.550;7.060;2022-07-23T02:33:56;4.57;;;4.40;;
6207;SDS011;3137;51.550;7.060;2022-07-23T02:36:23;4.23;;;4.13;;
6207;SDS011;3137;51.550;7.060;2022-07-23T02:38:51;4.50;;;4.50;;
6207;SDS011;3137;51.550;7.060;2022-07-23T02:41:18;5.10;;;5.00;;
6207;SDS011;3137;51.550;7.060;2022-07-23T02:43:44;5.13;;;4.87;;
6207;SDS011;3137;51.550;7.060;2022-07-23T02:46:14;4.70;;;4.47;;
6207;SDS011;3137;51.550;7.060;2022-07-23T02:48:41;5.33;;;5.30;;
6207;SDS011;3137;51.550;7.060;2022-07-23T02:51:08;5.27;;;5.07;;
6207;SDS011;3137;51.550;7.060;2022-07-23T02:53:44;5.40;;;5.27;;
6207;SDS011;3137;51.550;7.060;2022-07-23T02:56:11;5.70;;;5.50;;
6207;SDS011;3137;51.550;7.060;2022-07-23T02:58:37;5.97;;;5.67;;
6207;SDS011;3137;51.550;7.060;2022-07-23T03:01:03;5.20;;;5.10;;
6207;SDS011;3137;51.550;7.060;2022-07-23T03:03:30;5.23;;;5.13;;
6207;SDS011;3137;51.550;7.060;2022-07-23T03:05:56;5.17;;;4.97;;
6207;SDS011;3137;51.550;7.060;2022-07-23T03:08:23;5.27;;;5.17;;
6207;SDS011;3137;51.550;7.060;2022-07-23T03:10:51;5.13;;;5.00;;
6207;SDS011;3137;51.550;7.060;2022-07-23T03:13:17;5.47;;;5.17;;
6207;SDS011;3137;51.550;7.060;2022-07-23T03:15:44;5.90;;;5.57;;
6207;SDS011;3137;51.550;7.060;2022-07-23T03:18:10;5.33;;;5.07;;
6207;SDS011;3137;51.550;7.060;2022-07-23T03:20:37;4.93;;;4.83;;
6207;SDS011;3137;51.550;7.060;2022-07-23T03:23:03;5.20;;;5.10;;
6207;SDS011;3137;51.550;7.060;2022-07-23T03:25:30;5.03;;;4.90;;
6207;SDS011;3137;51.550;7.060;2022-07-23T03:27:56;6.10;;;5.83;;
6207;SDS011;3137;51.550;7.060;2022-07-23T03:30:25;5.70;;;5.30;;
6207;SDS011;3137;51.550;7.060;2022-07-23T03:32:51;5.70;;;5.50;;
6207;SDS011;3137;51.550;7.060;2022-07-23T03:35:18;7.70;;;5.53;;
6207;SDS011;3137;51.550;7.060;2022-07-23T03:37:56;6.87;;;6.63;;
6207;SDS011;3137;51.550;7.060;2022-07-23T03:40:24;6.03;;;5.60;;
6207;SDS011;3137;51.550;7.060;2022-07-23T03:42:51;5.30;;;5.20;;
6207;SDS011;3137;51.550;7.060;2022-07-23T03:45:17;8.27;;;6.23;;
6207;SDS011;3137;51.550;7.060;2022-07-23T03:47:44;7.13;;;6.70;;
6207;SDS011;3137;51.550;7.060;2022-07-23T03:50:12;6.23;;;6.00;;
6207;SDS011;3137;51.550;7.060;2022-07-23T03:52:40;5.77;;;5.47;;
6207;SDS011;3137;51.550;7.060;2022-07-23T03:55:07;6.20;;;6.10;;
6207;SDS011;3137;51.550;7.060;2022-07-23T03:57:34;6.37;;;6.27;;
6207;SDS011;3137;51.550;7.060;2022-07-23T04:00:00;6.63;;;6.47;;
6207;SDS011;3137;51.550;7.060;2022-07-23T04:02:27;5.80;;;5.70;;
6207;SDS011;3137;51.550;7.060;2022-07-23T04:04:54;5.27;;;4.90;;
6207;SDS011;3137;51.550;7.060;2022-07-23T04:07:21;4.93;;;4.63;;
6207;SDS011;3137;51.550;7.060;2022-07-23T04:09:47;7.00;;;6.70;;
6207;SDS011;3137;51.550;7.060;2022-07-23T04:12:14;5.60;;;5.50;;
6207;SDS011;3137;51.550;7.060;2022-07-23T04:14:41;6.67;;;6.47;;
6207;SDS011;3137;51.550;7.060;2022-07-23T04:17:07;5.23;;;5.13;;
6207;SDS011;3137;51.550;7.060;2022-07-23T04:19:34;6.40;;;5.93;;
6207;SDS011;3137;51.550;7.060;2022-07-23T04:22:06;6.17;;;5.97;;
6207;SDS011;3137;51.550;7.060;2022-07-23T04:24:35;6.77;;;6.67;;
6207;SDS011;3137;51.550;7.060;2022-07-23T04:27:02;6.80;;;6.60;;
6207;SDS011;3137;51.550;7.060;2022-07-23T04:29:31;5.27;;;5.10;;
6207;SDS011;3137;51.550;7.060;2022-07-23T04:31:57;5.80;;;5.77;;
6207;SDS011;3137;51.550;7.060;2022-07-23T04:34:24;5.37;;;5.27;;
6207;SDS011;3137;51.550;7.060;2022-07-23T04:36:53;7.13;;;6.80;;
6207;SDS011;3137;51.550;7.060;2022-07-23T04:39:20;6.30;;;6.20;;
6207;SDS011;3137;51.550;7.060;2022-07-23T04:41:46;6.77;;;6.47;;
6207;SDS011;3137;51.550;7.060;2022-07-23T04:44:13;6.90;;;6.03;;
6207;SDS011;3137;51.550;7.060;2022-07-23T04:46:40;6.17;;;5.93;;
6207;SDS011;3137;51.550;7.060;2022-07-23T04:49:07;5.80;;;5.70;;
6207;SDS011;3137;51.550;7.060;2022-07-23T04:51:34;6.73;;;6.50;;
6207;SDS011;3137;51.550;7.060;2022-07-23T04:54:00;5.87;;;5.77;;
6207;SDS011;3137;51.550;7.060;2022-07-23T04:56:27;7.00;;;6.40;;
6207;SDS011;3137;51.550;7.060;2022-07-23T04:58:53;6.67;;;6.27;;
6207;SDS011;3137;51.550;7.060;2022-07-23T05:01:20;6.00;;;5.90;;
6207;SDS011;3137;51.550;7.060;2022-07-23T05:03:46;7.20;;;6.80;;
6207;SDS011;3137;51.550;7.060;2022-07-23T05:06:15;6.80;;;6.50;;
6207;SDS011;3137;51.550;7.060;2022-07-23T05:08:42;6.33;;;6.13;;
6207;SDS011;3137;51.550;7.060;2022-07-23T05:11:10;6.10;;;5.90;;
6207;SDS011;3137;51.550;7.060;2022-07-23T05:13:36;7.13;;;6.83;;
6207;SDS011;3137;51.550;7.060;2022-07-23T05:16:06;7.13;;;6.83;;
6207;SDS011;3137;51.550;7.060;2022-07-23T05:18:32;8.43;;;7.93;;
6207;SDS011;3137;51.550;7.060;2022-07-23T05:20:59;8.90;;;8.40;;
6207;SDS011;3137;51.550;7.060;2022-07-23T05:23:25;7.90;;;7.50;;
6207;SDS011;3137;51.550;7.060;2022-07-23T05:25:52;7.03;;;6.83;;
6207;SDS011;3137;51.550;7.060;2022-07-23T05:28:18;8.33;;;7.93;;
6207;SDS011;3137;51.550;7.060;2022-07-23T05:30:48;6.57;;;6.37;;
6207;SDS011;3137;51.550;7.060;2022-07-23T05:33:19;7.77;;;7.40;;
6207;SDS011;3137;51.550;7.060;2022-07-23T05:35:46;8.20;;;7.40;;
6207;SDS011;3137;51.550;7.060;2022-07-23T05:38:23;8.90;;;8.33;;
6207;SDS011;3137;51.550;7.060;2022-07-23T05:40:49;9.87;;;7.80;;
6207;SDS011;3137;51.550;7.060;2022-07-23T05:43:17;7.93;;;7.43;;
6207;SDS011;3137;51.550;7.060;2022-07-23T05:45:43;8.23;;;7.83;;
6207;SDS011;3137;51.550;7.060;2022-07-23T05:48:10;8.57;;;8.17;;
6207;SDS011;3137;51.550;7.060;2022-07-23T05:50:46;9.87;;;8.97;;
6207;SDS011;3137;51.550;7.060;2022-07-23T05:53:23;9.20;;;8.70;;
6207;SDS011;3137;51.550;7.060;2022-07-23T05:56:11;9.40;;;8.57;;
6207;SDS011;3137;51.550;7.060;2022-07-23T05:58:38;8.70;;;8.20;;
6207;SDS011;3137;51.550;7.060;2022-07-23T06:01:06;10.77;;;7.73;;
6207;SDS011;3137;51.550;7.060;2022-07-23T06:03:40;7.93;;;7.53;;
6207;SDS011;3137;51.550;7.060;2022-07-23T06:06:07;8.20;;;7.70;;
6207;SDS011;3137;51.550;7.060;2022-07-23T06:08:35;7.93;;;7.63;;
6207;SDS011;3137;51.550;7.060;2022-07-23T06:11:01;7.73;;;7.40;;
6207;SDS011;3137;51.550;7.060;2022-07-23T06:13:28;9.43;;;8.83;;
6207;SDS011;3137;51.550;7.060;2022-07-23T06:15:54;8.80;;;8.23;;
6207;SDS011;3137;51.550;7.060;2022-07-23T06:18:21;8.73;;;8.00;;
6207;SDS011;3137;51.550;7.060;2022-07-23T06:20:47;8.40;;;7.80;;
6207;SDS011;3137;51.550;7.060;2022-07-23T06:23:17;9.20;;;8.40;;
6207;SDS011;3137;51.550;7.060;2022-07-23T06:25:43;8.23;;;7.73;;
6207;SDS011;3137;51.550;7.060;2022-07-23T06:28:10;9.67;;;8.97;;
6207;SDS011;3137;51.550;7.060;2022-07-23T06:30:36;8.03;;;7.83;;
6207;SDS011;3137;51.550;7.060;2022-07-23T06:33:04;10.50;;;8.80;;
6207;SDS011;3137;51.550;7.060;2022-07-23T06:35:30;10.40;;;9.50;;
6207;SDS011;3137;51.550;7.060;2022-07-23T06:37:57;11.73;;;8.77;;
6207;SDS011;3137;51.550;7.060;2022-07-23T06:40:24;9.10;;;8.37;;
6207;SDS011;3137;51.550;7.060;2022-07-23T06:42:51;10.23;;;9.37;;
6207;SDS011;3137;51.550;7.060;2022-07-23T06:45:21;9.20;;;8.90;;
6207;SDS011;3137;51.550;7.060;2022-07-23T06:47:48;8.60;;;7.87;;
6207;SDS011;3137;51.550;7.060;2022-07-23T06:50:14;7.43;;;7.03;;
6207;SDS011;3137;51.550;7.060;2022-07-23T06:52:41;8.20;;;7.70;;
6207;SDS011;3137;51.550;7.060;2022-07-23T06:55:08;7.27;;;6.90;;
6207;SDS011;3137;51.550;7.060;2022-07-23T06:57:36;10.50;;;7.63;;
6207;SDS011;3137;51.550;7.060;2022-07-23T07:00:05;9.73;;;8.93;;
6207;SDS011;3137;51.550;7.060;2022-07-23T07:02:32;9.87;;;8.83;;
6207;SDS011;3137;51.550;7.060;2022-07-23T07:04:58;9.03;;;8.27;;
6207;SDS011;3137;51.550;7.060;2022-07-23T07:07:31;8.40;;;7.80;;
6207;SDS011;3137;51.550;7.060;2022-07-23T07:09:57;9.40;;;8.73;;
6207;SDS011;3137;51.550;7.060;2022-07-23T07:12:24;9.37;;;8.50;;
6207;SDS011;3137;51.550;7.060;2022-07-23T07:14:50;9.77;;;8.87;;
6207;SDS011;3137;51.550;7.060;2022-07-23T07:17:16;9.07;;;8.33;;
6207;SDS011;3137;51.550;7.060;2022-07-23T07:19:43;11.60;;;7.57;;
6207;SDS011;3137;51.550;7.060;2022-07-23T07:22:09;7.63;;;7.03;;
6207;SDS011;3137;51.550;7.060;2022-07-23T07:24:36;9.83;;;7.30;;
6207;SDS011;3137;51.550;7.060;2022-07-23T07:27:04;8.57;;;7.83;;
6207;SDS011;3137;51.550;7.060;2022-07-23T07:29:31;7.97;;;7.37;;
6207;SDS011;3137;51.550;7.060;2022-07-23T07:31:57;8.13;;;7.77;;
6207;SDS011;3137;51.550;7.060;2022-07-23T07:34:23;7.17;;;7.00;;
6207;SDS011;3137;51.550;7.060;2022-07-23T07:36:50;7.57;;;7.23;;
6207;SDS011;3137;51.550;7.060;2022-07-23T07:39:17;7.80;;;7.23;;
6207;SDS011;3137;51.550;7.060;2022-07-23T07:41:43;7.57;;;7.10;;
6207;SDS011;3137;51.550;7.060;2022-07-23T07:44:10;7.23;;;6.60;;
6207;SDS011;3137;51.550;7.060;2022-07-23T07:46:36;7.83;;;7.43;;
6207;SDS011;3137;51.550;7.060;2022-07-23T07:49:02;21.77;;;7.53;;
6207;SDS011;3137;51.550;7.060;2022-07-23T07:51:31;8.53;;;8.13;;
6207;SDS011;3137;51.550;7.060;2022-07-23T07:53:58;8.30;;;7.90;;
6207;SDS011;3137;51.550;7.060;2022-07-23T07:56:26;8.90;;;8.00;;
6207;SDS011;3137;51.550;7.060;2022-07-23T07:58:53;6.90;;;6.57;;
6207;SDS011;3137;51.550;7.060;2022-07-23T08:01:19;7.33;;;7.13;;
6207;SDS011;3137;51.550;7.060;2022-07-23T08:03:46;8.20;;;7.80;;
6207;SDS011;3137;51.550;7.060;2022-07-23T08:06:13;6.60;;;6.40;;
6207;SDS011;3137;51.550;7.060;2022-07-23T08:08:39;5.80;;;5.67;;
6207;SDS011;3137;51.550;7.060;2022-07-23T08:11:06;5.07;;;4.90;;
6207;SDS011;3137;51.550;7.060;2022-07-23T08:13:32;5.40;;;4.90;;
6207;SDS011;3137;51.550;7.060;2022-07-23T08:15:58;4.40;;;4.23;;
6207;SDS011;3137;51.550;7.060;2022-07-23T08:18:26;4.20;;;4.10;;
6207;SDS011;3137;51.550;7.060;2022-07-23T08:20:53;4.10;;;4.10;;
6207;SDS011;3137;51.550;7.060;2022-07-23T08:23:19;4.23;;;3.97;;
6207;SDS011;3137;51.550;7.060;2022-07-23T08:25:46;4.90;;;4.70;;
6207;SDS011;3137;51.550;7.060;2022-07-23T08:28:13;5.47;;;5.27;;
6207;SDS011;3137;51.550;7.060;2022-07-23T08:30:41;5.37;;;5.17;;
6207;SDS011;3137;51.550;7.060;2022-07-23T08:33:13;5.00;;;4.87;;
6207;SDS011;3137;51.550;7.060;2022-07-23T08:35:59;5.13;;;4.97;;
6207;SDS011;3137;51.550;7.060;2022-07-23T08:38:28;6.17;;;5.60;;
6207;SDS011;3137;51.550;7.060;2022-07-23T08:40:55;5.33;;;5.23;;
6207;SDS011;3137;51.550;7.060;2022-07-23T08:43:24;5.50;;;5.13;;
6207;SDS011;3137;51.550;7.060;2022-07-23T08:45:52;4.60;;;4.50;;
6207;SDS011;3137;51.550;7.060;2022-07-23T08:48:23;4.63;;;4.53;;
6207;SDS011;3137;51.550;7.060;2022-07-23T08:50:59;5.10;;;4.97;;
6207;SDS011;3137;51.550;7.060;2022-07-23T08:53:27;4.13;;;3.93;;
6207;SDS011;3137;51.550;7.060;2022-07-23T08:55:55;4.63;;;4.53;;
6207;SDS011;3137;51.550;7.060;2022-07-23T08:58:23;5.27;;;5.17;;
6207;SDS011;3137;51.550;7.060;2022-07-23T09:00:54;4.47;;;4.37;;
6207;SDS011;3137;51.550;7.060;2022-07-23T09:03:24;4.43;;;4.23;;
6207;SDS011;3137;51.550;7.060;2022-07-23T09:05:57;4.47;;;4.37;;
6207;SDS011;3137;51.550;7.060;2022-07-23T09:08:25;5.93;;;5.43;;
6207;SDS011;3137;51.550;7.060;2022-07-23T09:11:01;6.10;;;5.37;;
6207;SDS011;3137;51.550;7.060;2022-07-23T09:16:00;5.47;;;5.33;;
6207;SDS011;3137;51.550;7.060;2022-07-23T09:18:33;4.37;;;4.27;;
6207;SDS011;3137;51.550;7.060;2022-07-23T09:21:34;5.17;;;5.00;;
6207;SDS011;3137;51.550;7.060;2022-07-23T09:24:09;4.50;;;4.07;;
6207;SDS011;3137;51.550;7.060;2022-07-23T09:29:40;4.00;;;3.90;;
6207;SDS011;3137;51.550;7.060;2022-07-23T09:32:00;4.00;;;4.00;;
6207;SDS011;3137;51.550;7.060;2022-07-23T09:34:28;3.97;;;3.93;;
6207;SDS011;3137;51.550;7.060;2022-07-23T09:37:09;4.07;;;4.07;;
6207;SDS011;3137;51.550;7.060;2022-07-23T09:39:40;3.80;;;3.80;;
6207;SDS011;3137;51.550;7.060;2022-07-23T09:44:48;4.50;;;4.40;;
6207;SDS011;3137;51.550;7.060;2022-07-23T09:47:16;3.60;;;3.30;;
6207;SDS011;3137;51.550;7.060;2022-07-23T09:52:29;3.17;;;2.93;;
6207;SDS011;3137;51.550;7.060;2022-07-23T09:55:05;3.30;;;3.30;;
6207;SDS011;3137;51.550;7.060;2022-07-23T09:57:32;3.60;;;3.43;;
6207;SDS011;3137;51.550;7.060;2022-07-23T10:00:05;3.23;;;3.13;;
6207;SDS011;3137;51.550;7.060;2022-07-23T10:02:34;8.43;;;3.57;;
6207;SDS011;3137;51.550;7.060;2022-07-23T10:05:20;3.80;;;3.50;;
6207;SDS011;3137;51.550;7.060;2022-07-23T10:08:06;3.67;;;3.40;;
6207;SDS011;3137;51.550;7.060;2022-07-23T10:10:54;3.33;;;3.33;;
6207;SDS011;3137;51.550;7.060;2022-07-23T10:13:21;2.90;;;2.90;;
6207;SDS011;3137;51.550;7.060;2022-07-23T10:16:10;3.10;;;3.00;;
6207;SDS011;3137;51.550;7.060;2022-07-23T10:18:42;3.10;;;3.10;;
6207;SDS011;3137;51.550;7.060;2022-07-23T10:21:11;2.50;;;2.50;;
6207;SDS011;3137;51.550;7.060;2022-07-23T10:23:44;2.90;;;2.67;;
6207;SDS011;3137;51.550;7.060;2022-07-23T10:26:17;3.10;;;3.07;;
6207;SDS011;3137;51.550;7.060;2022-07-23T10:28:55;2.97;;;2.93;;
6207;SDS011;3137;51.550;7.060;2022-07-23T10:37:28;2.57;;;2.57;;
6207;SDS011;3137;51.550;7.060;2022-07-23T10:40:09;2.50;;;2.50;;
6207;SDS011;3137;51.550;7.060;2022-07-23T10:42:48;1.87;;;1.87;;
6207;SDS011;3137;51.550;7.060;2022-07-23T10:47:53;2.83;;;2.83;;
6207;SDS011;3137;51.550;7.060;2022-07-23T10:50:22;4.83;;;2.27;;
6207;SDS011;3137;51.550;7.060;2022-07-23T10:53:07;1.90;;;1.90;;
6207;SDS011;3137;51.550;7.060;2022-07-23T10:58:04;1.90;;;1.90;;
6207;SDS011;3137;51.550;7.060;2022-07-23T11:00:32;3.40;;;2.53;;
6207;SDS011;3137;51.550;7.060;2022-07-23T11:03:01;1.97;;;1.97;;
6207;SDS011;3137;51.550;7.060;2022-07-23T11:05:43;7.70;;;2.80;;
6207;SDS011;3137;51.550;7.060;2022-07-23T11:08:12;1.70;;;1.60;;
6207;SDS011;3137;51.550;7.060;2022-07-23T11:10:45;3.40;;;1.90;;
6207;SDS011;3137;51.550;7.060;2022-07-23T11:16:38;2.23;;;2.13;;
6207;SDS011;3137;51.550;7.060;2022-07-23T11:31:54;2.00;;;2.00;;
6207;SDS011;3137;51.550;7.060;2022-07-23T11:37:33;2.13;;;2.03;;
6207;SDS011;3137;51.550;7.060;2022-07-23T11:40:06;1.40;;;1.40;;
6207;SDS011;3137;51.550;7.060;2022-07-23T11:42:34;1.90;;;1.90;;
6207;SDS011;3137;51.550;7.060;2022-07-23T11:45:01;3.93;;;2.13;;
6207;SDS011;3137;51.550;7.060;2022-07-23T11:47:29;2.10;;;2.00;;
6207;SDS011;3137;51.550;7.060;2022-07-23T11:49:56;2.50;;;2.40;;
6207;SDS011;3137;51.550;7.060;2022-07-23T11:52:25;3.10;;;2.40;;
6207;SDS011;3137;51.550;7.060;2022-07-23T11:57:21;2.27;;;2.27;;
6207;SDS011;3137;51.550;7.060;2022-07-23T11:59:51;1.63;;;1.63;;
6207;SDS011;3137;51.550;7.060;2022-07-23T12:02:19;2.07;;;1.97;;
6207;SDS011;3137;51.550;7.060;2022-07-23T12:04:47;1.67;;;1.60;;
6207;SDS011;3137;51.550;7.060;2022-07-23T12:07:24;1.70;;;1.60;;
6207;SDS011;3137;51.550;7.060;2022-07-23T12:09:51;2.00;;;2.00;;
6207;SDS011;3137;51.550;7.060;2022-07-23T12:12:18;1.90;;;1.90;;
6207;SDS011;3137;51.550;7.060;2022-07-23T12:14:49;1.90;;;1.90;;
6207;SDS011;3137;51.550;7.060;2022-07-23T12:17:15;1.67;;;1.60;;
6207;SDS011;3137;51.550;7.060;2022-07-23T12:19:42;1.50;;;1.50;;
6207;SDS011;3137;51.550;7.060;2022-07-23T12:22:08;1.73;;;1.73;;
6207;SDS011;3137;51.550;7.060;2022-07-23T12:27:21;1.43;;;1.43;;
6207;SDS011;3137;51.550;7.060;2022-07-23T12:29:48;1.57;;;1.57;;
6207;SDS011;3137;51.550;7.060;2022-07-23T12:34:48;3.00;;;1.70;;
6207;SDS011;3137;51.550;7.060;2022-07-23T12:37:25;4.20;;;2.00;;
6207;SDS011;3137;51.550;7.060;2022-07-23T12:39:53;1.60;;;1.60;;
6207;SDS011;3137;51.550;7.060;2022-07-23T12:42:19;7.53;;;2.03;;
6207;SDS011;3137;51.550;7.060;2022-07-23T12:45:02;2.10;;;2.10;;
6207;SDS011;3137;51.550;7.060;2022-07-23T12:47:30;1.70;;;1.70;;
6207;SDS011;3137;51.550;7.060;2022-07-23T12:49:56;2.07;;;1.90;;
6207;SDS011;3137;51.550;7.060;2022-07-23T12:52:24;2.20;;;2.00;;
6207;SDS011;3137;51.550;7.060;2022-07-23T12:54:51;1.80;;;1.80;;
6207;SDS011;3137;51.550;7.060;2022-07-23T12:57:18;2.23;;;2.13;;
6207;SDS011;3137;51.550;7.060;2022-07-23T12:59:44;2.13;;;2.13;;
6207;SDS011;3137;51.550;7.060;2022-07-23T13:02:12;1.87;;;1.87;;
6207;SDS011;3137;51.550;7.060;2022-07-23T13:04:39;2.27;;;2.27;;
6207;SDS011;3137;51.550;7.060;2022-07-23T13:07:07;2.10;;;2.10;;
6207;SDS011;3137;51.550;7.060;2022-07-23T13:09:34;2.23;;;2.23;;
6207;SDS011;3137;51.550;7.060;2022-07-23T13:12:08;8.03;;;1.87;;
6207;SDS011;3137;51.550;7.060;2022-07-23T13:14:36;2.23;;;2.17;;
6207;SDS011;3137;51.550;7.060;2022-07-23T13:17:03;2.17;;;2.10;;
6207;SDS011;3137;51.550;7.060;2022-07-23T13:19:32;2.00;;;2.00;;
6207;SDS011;3137;51.550;7.060;2022-07-23T13:21:58;1.70;;;1.70;;
6207;SDS011;3137;51.550;7.060;2022-07-23T13:24:27;1.77;;;1.77;;
6207;SDS011;3137;51.550;7.060;2022-07-23T13:26:53;2.20;;;2.20;;
6207;SDS011;3137;51.550;7.060;2022-07-23T13:29:20;1.57;;;1.57;;
6207;SDS011;3137;51.550;7.060;2022-07-23T13:31:47;2.07;;;2.07;;
6207;SDS011;3137;51.550;7.060;2022-07-23T13:34:16;1.80;;;1.80;;
6207;SDS011;3137;51.550;7.060;2022-07-23T13:36:43;2.57;;;2.20;;
6207;SDS011;3137;51.550;7.060;2022-07-23T13:39:10;1.90;;;1.90;;
6207;SDS011;3137;51.550;7.060;2022-07-23T13:41:40;2.20;;;2.10;;
6207;SDS011;3137;51.550;7.060;2022-07-23T13:44:16;2.30;;;2.20;;
6207;SDS011;3137;51.550;7.060;2022-07-23T13:46:42;2.50;;;2.35;;
6207;SDS011;3137;51.550;7.060;2022-07-23T13:49:09;2.47;;;2.47;;
6207;SDS011;3137;51.550;7.060;2022-07-23T13:51:36;2.40;;;2.30;;
6207;SDS011;3137;51.550;7.060;2022-07-23T13:54:03;1.95;;;1.95;;
6207;SDS011;3137;51.550;7.060;2022-07-23T13:56:34;1.60;;;1.60;;
6207;SDS011;3137;51.550;7.060;2022-07-23T13:59:01;2.00;;;2.00;;
6207;SDS011;3137;51.550;7.060;2022-07-23T14:01:28;2.50;;;2.50;;
6207;SDS011;3137;51.550;7.060;2022-07-23T14:04:11;2.38;;;2.38;;
6207;SDS011;3137;51.550;7.060;2022-07-23T14:06:37;2.57;;;2.47;;
6207;SDS011;3137;51.550;7.060;2022-07-23T14:09:04;1.90;;;1.80;;
6207;SDS011;3137;51.550;7.060;2022-07-23T14:11:33;2.78;;;2.72;;
6207;SDS011;3137;51.550;7.060;2022-07-23T14:14:00;3.13;;;3.10;;
6207;SDS011;3137;51.550;7.060;2022-07-23T14:16:28;2.30;;;2.30;;
6207;SDS011;3137;51.550;7.060;2022-07-23T14:18:54;2.50;;;2.50;;
6207;SDS011;3137;51.550;7.060;2022-07-23T14:21:21;2.40;;;2.40;;
6207;SDS011;3137;51.550;7.060;2022-07-23T14:23:47;3.05;;;3.05;;
6207;SDS011;3137;51.550;7.060;2022-07-23T14:26:14;2.80;;;2.80;;
6207;SDS011;3137;51.550;7.060;2022-07-23T14:28:40;2.78;;;2.58;;
6207;SDS011;3137;51.550;7.060;2022-07-23T14:31:07;3.25;;;3.13;;
6207;SDS011;3137;51.550;7.060;2022-07-23T14:33:46;2.33;;;2.28;;
6207;SDS011;3137;51.550;7.060;2022-07-23T14:36:13;2.33;;;2.33;;
6207;SDS011;3137;51.550;7.060;2022-07-23T14:38:41;2.83;;;2.83;;
6207;SDS011;3137;51.550;7.060;2022-07-23T14:41:08;2.13;;;2.13;;
6207;SDS011;3137;51.550;7.060;2022-07-23T14:43:35;2.92;;;2.83;;
6207;SDS011;3137;51.550;7.060;2022-07-23T14:46:04;2.13;;;2.13;;
6207;SDS011;3137;51.550;7.060;2022-07-23T14:48:31;2.90;;;2.90;;
6207;SDS011;3137;51.550;7.060;2022-07-23T14:50:57;2.85;;;2.85;;
6207;SDS011;3137;51.550;7.060;2022-07-23T14:53:24;2.65;;;2.65;;
6207;SDS011;3137;51.550;7.060;2022-07-23T14:55:51;2.85;;;2.85;;
6207;SDS011;3137;51.550;7.060;2022-07-23T14:58:17;2.53;;;2.53;;
6207;SDS011;3137;51.550;7.060;2022-07-23T15:00:44;2.80;;;2.65;;
6207;SDS011;3137;51.550;7.060;2022-07-23T15:03:10;2.70;;;2.70;;
6207;SDS011;3137;51.550;7.060;2022-07-23T15:05:37;2.50;;;2.50;;
6207;SDS011;3137;51.550;7.060;2022-07-23T15:08:03;2.65;;;2.65;;
6207;SDS011;3137;51.550;7.060;2022-07-23T15:10:34;2.60;;;2.50;;
6207;SDS011;3137;51.550;7.060;2022-07-23T15:13:03;2.58;;;2.58;;
6207;SDS011;3137;51.550;7.060;2022-07-23T15:15:29;2.53;;;2.45;;
6207;SDS011;3137;51.550;7.060;2022-07-23T15:17:56;2.38;;;2.38;;
6207;SDS011;3137;51.550;7.060;2022-07-23T15:20:22;2.92;;;2.78;;
6207;SDS011;3137;51.550;7.060;2022-07-23T15:23:05;2.83;;;2.45;;
6207;SDS011;3137;51.550;7.060;2022-07-23T15:25:33;2.60;;;2.60;;
6207;SDS011;3137;51.550;7.060;2022-07-23T15:28:00;3.03;;;2.95;;
6207;SDS011;3137;51.550;7.060;2022-07-23T15:30:26;2.55;;;2.55;;
6207;SDS011;3137;51.550;7.060;2022-07-23T15:32:53;2.40;;;2.40;;
6207;SDS011;3137;51.550;7.060;2022-07-23T15:35:19;2.85;;;2.85;;
6207;SDS011;3137;51.550;7.060;2022-07-23T15:37:46;2.40;;;2.40;;
6207;SDS011;3137;51.550;7.060;2022-07-23T15:40:13;2.78;;;2.70;;
6207;SDS011;3137;51.550;7.060;2022-07-23T15:42:39;2.70;;;2.60;;
6207;SDS011;3137;51.550;7.060;2022-07-23T15:45:06;2.63;;;2.63;;
6207;SDS011;3137;51.550;7.060;2022-07-23T15:47:32;2.80;;;2.80;;
6207;SDS011;3137;51.550;7.060;2022-07-23T15:49:59;2.92;;;2.83;;
6207;SDS011;3137;51.550;7.060;2022-07-23T15:52:25;2.53;;;2.53;;
6207;SDS011;3137;51.550;7.060;2022-07-23T15:54:52;2.67;;;2.67;;
6207;SDS011;3137;51.550;7.060;2022-07-23T15:57:18;3.13;;;3.03;;
6207;SDS011;3137;51.550;7.060;2022-07-23T15:59:46;3.20;;;3.10;;
6207;SDS011;3137;51.550;7.060;2022-07-23T16:02:13;2.78;;;2.78;;
6207;SDS011;3137;51.550;7.060;2022-07-23T16:04:40;2.70;;;2.70;;
6207;SDS011;3137;51.550;7.060;2022-07-23T16:07:06;2.33;;;2.30;;
6207;SDS011;3137;51.550;7.060;2022-07-23T16:09:40;2.58;;;2.58;;
6207;SDS011;3137;51.550;7.060;2022-07-23T16:12:06;3.20;;;3.20;;